sensor_id;sensor_type;location;lat;lon;timestamp;P1;durP1;ratioP1;P2;durP2;ratioP2
22531;SDS011;11432;46.924;7.114;2022-11-20T00:01:21;4.13;;;1.25;;
22531;SDS011;11432;46.924;7.114;2022-11-20T00:03:48;2.05;;;0.80;;
22531;SDS011;11432;46.924;7.114;2022-11-20T00:06:16;3.03;;;0.90;;
22531;SDS011;11432;46.924;7.114;2022-11-20T00:08:43;1.20;;;0.80;;
22531;SDS011;11432;46.924;7.114;2022-11-20T00:11:11;2.45;;;0.80;;
22531;SDS011;11432;46.924;7.114;2022-11-20T00:13:41;2.55;;;0.80;;
22531;SDS011;11432;46.924;7.114;2022-11-20T00:18:37;1.10;;;0.70;;
22531;SDS011;11432;46.924;7.114;2022-11-20T00:21:03;2.75;;;0.63;;
22531;SDS011;11432;46.924;7.114;2022-11-20T00:23:30;3.72;;;0.95;;
22531;SDS011;11432;46.924;7.114;2022-11-20T00:25:56;1.83;;;0.90;;
22531;SDS011;11432;46.924;7.114;2022-11-20T00:28:26;1.13;;;0.68;;
22531;SDS011;11432;46.924;7.114;2022-11-20T00:30:51;1.00;;;0.60;;
22531;SDS011;11432;46.924;7.114;2022-11-20T00:33:17;2.83;;;0.90;;
22531;SDS011;11432;46.924;7.114;2022-11-20T00:35:42;3.40;;;0.98;;
22531;SDS011;11432;46.924;7.114;2022-11-20T00:38:08;1.70;;;0.70;;
22531;SDS011;11432;46.924;7.114;2022-11-20T00:40:33;1.35;;;0.60;;
22531;SDS011;11432;46.924;7.114;2022-11-20T00:42:59;0.88;;;0.50;;
22531;SDS011;11432;46.924;7.114;2022-11-20T00:45:24;1.27;;;0.70;;
22531;SDS011;11432;46.924;7.114;2022-11-20T00:47:50;1.65;;;0.90;;
22531;SDS011;11432;46.924;7.114;2022-11-20T00:50:15;1.27;;;0.52;;
22531;SDS011;11432;46.924;7.114;2022-11-20T00:52:41;1.17;;;0.77;;
22531;SDS011;11432;46.924;7.114;2022-11-20T00:55:07;1.38;;;0.50;;
22531;SDS011;11432;46.924;7.114;2022-11-20T00:57:32;1.70;;;0.50;;
22531;SDS011;11432;46.924;7.114;2022-11-20T00:59:58;1.00;;;0.73;;
22531;SDS011;11432;46.924;7.114;2022-11-20T01:02:23;2.97;;;0.90;;
22531;SDS011;11432;46.924;7.114;2022-11-20T01:04:49;1.08;;;0.68;;
22531;SDS011;11432;46.924;7.114;2022-11-20T01:07:14;1.33;;;0.60;;
22531;SDS011;11432;46.924;7.114;2022-11-20T01:09:40;1.23;;;0.60;;
22531;SDS011;11432;46.924;7.114;2022-11-20T01:12:05;1.48;;;0.90;;
22531;SDS011;11432;46.924;7.114;2022-11-20T01:14:31;1.15;;;0.60;;
22531;SDS011;11432;46.924;7.114;2022-11-20T01:16:57;1.48;;;0.50;;
22531;SDS011;11432;46.924;7.114;2022-11-20T01:19:22;0.90;;;0.55;;
22531;SDS011;11432;46.924;7.114;2022-11-20T01:21:49;1.55;;;0.70;;
22531;SDS011;11432;46.924;7.114;2022-11-20T01:24:17;1.20;;;0.57;;
22531;SDS011;11432;46.924;7.114;2022-11-20T01:26:44;1.60;;;0.60;;
22531;SDS011;11432;46.924;7.114;2022-11-20T01:29:13;1.42;;;0.88;;
22531;SDS011;11432;46.924;7.114;2022-11-20T01:31:41;1.33;;;0.70;;
22531;SDS011;11432;46.924;7.114;2022-11-20T01:34:09;1.38;;;0.57;;
22531;SDS011;11432;46.924;7.114;2022-11-20T01:36:37;1.10;;;0.60;;
22531;SDS011;11432;46.924;7.114;2022-11-20T01:39:05;1.35;;;0.70;;
22531;SDS011;11432;46.924;7.114;2022-11-20T01:41:34;2.97;;;0.73;;
22531;SDS011;11432;46.924;7.114;2022-11-20T01:44:20;3.22;;;0.70;;
22531;SDS011;11432;46.924;7.114;2022-11-20T01:46:52;2.95;;;0.60;;
22531;SDS011;11432;46.924;7.114;2022-11-20T01:49:24;0.95;;;0.50;;
22531;SDS011;11432;46.924;7.114;2022-11-20T01:51:58;1.65;;;0.70;;
22531;SDS011;11432;46.924;7.114;2022-11-20T01:54:36;2.22;;;0.63;;
22531;SDS011;11432;46.924;7.114;2022-11-20T01:57:08;1.38;;;0.57;;
22531;SDS011;11432;46.924;7.114;2022-11-20T01:59:37;2.17;;;0.47;;
22531;SDS011;11432;46.924;7.114;2022-11-20T02:02:06;2.40;;;0.75;;
22531;SDS011;11432;46.924;7.114;2022-11-20T02:04:32;1.40;;;0.50;;
22531;SDS011;11432;46.924;7.114;2022-11-20T02:07:01;1.92;;;0.60;;
22531;SDS011;11432;46.924;7.114;2022-11-20T02:09:29;2.35;;;0.60;;
22531;SDS011;11432;46.924;7.114;2022-11-20T02:11:55;1.13;;;0.50;;
22531;SDS011;11432;46.924;7.114;2022-11-20T02:14:22;2.22;;;0.55;;
22531;SDS011;11432;46.924;7.114;2022-11-20T02:16:49;0.98;;;0.50;;
22531;SDS011;11432;46.924;7.114;2022-11-20T02:24:39;1.25;;;0.70;;
22531;SDS011;11432;46.924;7.114;2022-11-20T02:27:10;2.80;;;0.60;;
22531;SDS011;11432;46.924;7.114;2022-11-20T02:32:17;1.38;;;0.63;;
22531;SDS011;11432;46.924;7.114;2022-11-20T02:37:44;1.73;;;0.82;;
22531;SDS011;11432;46.924;7.114;2022-11-20T02:40:14;1.08;;;0.57;;
22531;SDS011;11432;46.924;7.114;2022-11-20T02:42:40;0.93;;;0.60;;
22531;SDS011;11432;46.924;7.114;2022-11-20T02:45:06;2.42;;;0.80;;
22531;SDS011;11432;46.924;7.114;2022-11-20T02:47:33;1.33;;;0.57;;
22531;SDS011;11432;46.924;7.114;2022-11-20T02:49:59;1.30;;;0.60;;
22531;SDS011;11432;46.924;7.114;2022-11-20T02:52:25;2.67;;;0.90;;
22531;SDS011;11432;46.924;7.114;2022-11-20T02:54:51;1.58;;;0.80;;
22531;SDS011;11432;46.924;7.114;2022-11-20T02:57:17;2.28;;;1.08;;
22531;SDS011;11432;46.924;7.114;2022-11-20T02:59:42;1.27;;;0.60;;
22531;SDS011;11432;46.924;7.114;2022-11-20T03:02:08;2.45;;;0.75;;
22531;SDS011;11432;46.924;7.114;2022-11-20T03:04:34;2.92;;;0.80;;
22531;SDS011;11432;46.924;7.114;2022-11-20T03:06:59;1.15;;;0.70;;
22531;SDS011;11432;46.924;7.114;2022-11-20T03:09:25;2.65;;;0.88;;
22531;SDS011;11432;46.924;7.114;2022-11-20T03:11:51;2.13;;;0.80;;
22531;SDS011;11432;46.924;7.114;2022-11-20T03:14:16;2.17;;;0.98;;
22531;SDS011;11432;46.924;7.114;2022-11-20T03:16:42;1.95;;;0.77;;
22531;SDS011;11432;46.924;7.114;2022-11-20T03:19:08;2.33;;;0.70;;
22531;SDS011;11432;46.924;7.114;2022-11-20T03:21:33;2.55;;;0.90;;
22531;SDS011;11432;46.924;7.114;2022-11-20T03:23:59;1.83;;;1.17;;
22531;SDS011;11432;46.924;7.114;2022-11-20T03:26:26;3.60;;;1.27;;
22531;SDS011;11432;46.924;7.114;2022-11-20T03:28:53;4.47;;;1.20;;
22531;SDS011;11432;46.924;7.114;2022-11-20T03:31:22;1.77;;;0.82;;
22531;SDS011;11432;46.924;7.114;2022-11-20T03:33:53;3.00;;;1.30;;
22531;SDS011;11432;46.924;7.114;2022-11-20T03:36:19;5.03;;;1.17;;
22531;SDS011;11432;46.924;7.114;2022-11-20T03:38:46;4.15;;;1.25;;
22531;SDS011;11432;46.924;7.114;2022-11-20T03:41:14;2.35;;;1.13;;
22531;SDS011;11432;46.924;7.114;2022-11-20T03:43:41;3.38;;;1.00;;
22531;SDS011;11432;46.924;7.114;2022-11-20T03:46:07;2.75;;;0.93;;
22531;SDS011;11432;46.924;7.114;2022-11-20T03:48:33;4.13;;;0.85;;
22531;SDS011;11432;46.924;7.114;2022-11-20T03:51:08;1.98;;;0.90;;
22531;SDS011;11432;46.924;7.114;2022-11-20T03:53:35;1.35;;;0.80;;
22531;SDS011;11432;46.924;7.114;2022-11-20T03:56:01;1.98;;;0.88;;
22531;SDS011;11432;46.924;7.114;2022-11-20T03:58:27;1.95;;;0.90;;
22531;SDS011;11432;46.924;7.114;2022-11-20T04:00:52;3.63;;;1.00;;
22531;SDS011;11432;46.924;7.114;2022-11-20T04:03:18;1.85;;;0.88;;
22531;SDS011;11432;46.924;7.114;2022-11-20T04:05:44;3.00;;;1.05;;
22531;SDS011;11432;46.924;7.114;2022-11-20T04:08:09;0.95;;;0.70;;
22531;SDS011;11432;46.924;7.114;2022-11-20T04:10:35;2.28;;;0.80;;
22531;SDS011;11432;46.924;7.114;2022-11-20T04:13:00;0.70;;;0.55;;
22531;SDS011;11432;46.924;7.114;2022-11-20T04:15:26;1.45;;;0.82;;
22531;SDS011;11432;46.924;7.114;2022-11-20T04:17:51;1.80;;;0.75;;
22531;SDS011;11432;46.924;7.114;2022-11-20T04:20:18;1.60;;;0.50;;
22531;SDS011;11432;46.924;7.114;2022-11-20T04:22:44;0.80;;;0.40;;
22531;SDS011;11432;46.924;7.114;2022-11-20T04:25:10;1.35;;;0.50;;
22531;SDS011;11432;46.924;7.114;2022-11-20T04:27:35;1.55;;;0.60;;
22531;SDS011;11432;46.924;7.114;2022-11-20T04:30:01;1.13;;;0.60;;
22531;SDS011;11432;46.924;7.114;2022-11-20T04:32:26;2.22;;;0.43;;
22531;SDS011;11432;46.924;7.114;2022-11-20T04:34:52;3.08;;;0.50;;
22531;SDS011;11432;46.924;7.114;2022-11-20T04:37:18;2.08;;;0.70;;
22531;SDS011;11432;46.924;7.114;2022-11-20T04:39:43;1.55;;;0.65;;
22531;SDS011;11432;46.924;7.114;2022-11-20T04:42:09;3.10;;;0.75;;
22531;SDS011;11432;46.924;7.114;2022-11-20T04:44:54;2.33;;;0.52;;
22531;SDS011;11432;46.924;7.114;2022-11-20T04:47:20;1.50;;;0.60;;
22531;SDS011;11432;46.924;7.114;2022-11-20T04:49:45;1.85;;;0.70;;
22531;SDS011;11432;46.924;7.114;2022-11-20T04:52:11;1.42;;;0.50;;
22531;SDS011;11432;46.924;7.114;2022-11-20T04:54:37;2.47;;;0.80;;
22531;SDS011;11432;46.924;7.114;2022-11-20T04:57:02;1.42;;;0.60;;
22531;SDS011;11432;46.924;7.114;2022-11-20T04:59:28;1.70;;;0.60;;
22531;SDS011;11432;46.924;7.114;2022-11-20T05:01:54;0.60;;;0.40;;
22531;SDS011;11432;46.924;7.114;2022-11-20T05:04:19;2.08;;;0.40;;
22531;SDS011;11432;46.924;7.114;2022-11-20T05:06:45;1.23;;;0.30;;
22531;SDS011;11432;46.924;7.114;2022-11-20T05:09:11;0.98;;;0.50;;
22531;SDS011;11432;46.924;7.114;2022-11-20T05:11:37;2.20;;;0.40;;
22531;SDS011;11432;46.924;7.114;2022-11-20T05:14:03;0.65;;;0.40;;
22531;SDS011;11432;46.924;7.114;2022-11-20T05:16:28;1.42;;;0.60;;
22531;SDS011;11432;46.924;7.114;2022-11-20T05:18:54;0.90;;;0.43;;
22531;SDS011;11432;46.924;7.114;2022-11-20T05:21:20;0.57;;;0.45;;
22531;SDS011;11432;46.924;7.114;2022-11-20T05:23:46;1.48;;;0.60;;
22531;SDS011;11432;46.924;7.114;2022-11-20T05:26:14;2.75;;;0.88;;
22531;SDS011;11432;46.924;7.114;2022-11-20T05:28:41;1.75;;;0.60;;
22531;SDS011;11432;46.924;7.114;2022-11-20T05:31:07;1.10;;;0.40;;
22531;SDS011;11432;46.924;7.114;2022-11-20T05:33:35;0.98;;;0.50;;
22531;SDS011;11432;46.924;7.114;2022-11-20T05:36:02;2.30;;;0.50;;
22531;SDS011;11432;46.924;7.114;2022-11-20T05:38:28;1.40;;;0.60;;
22531;SDS011;11432;46.924;7.114;2022-11-20T05:40:54;6.07;;;0.63;;
22531;SDS011;11432;46.924;7.114;2022-11-20T05:43:19;1.00;;;0.50;;
22531;SDS011;11432;46.924;7.114;2022-11-20T05:45:52;1.45;;;0.50;;
22531;SDS011;11432;46.924;7.114;2022-11-20T05:48:18;1.15;;;0.30;;
22531;SDS011;11432;46.924;7.114;2022-11-20T05:50:44;0.70;;;0.50;;
22531;SDS011;11432;46.924;7.114;2022-11-20T05:53:10;2.67;;;0.90;;
22531;SDS011;11432;46.924;7.114;2022-11-20T05:55:35;1.73;;;0.50;;
22531;SDS011;11432;46.924;7.114;2022-11-20T05:58:01;2.13;;;0.43;;
22531;SDS011;11432;46.924;7.114;2022-11-20T06:00:26;0.80;;;0.50;;
22531;SDS011;11432;46.924;7.114;2022-11-20T06:02:52;1.75;;;0.70;;
22531;SDS011;11432;46.924;7.114;2022-11-20T06:05:17;1.33;;;0.50;;
22531;SDS011;11432;46.924;7.114;2022-11-20T06:07:43;1.27;;;0.50;;
22531;SDS011;11432;46.924;7.114;2022-11-20T06:10:09;1.70;;;0.65;;
22531;SDS011;11432;46.924;7.114;2022-11-20T06:12:34;0.52;;;0.50;;
22531;SDS011;11432;46.924;7.114;2022-11-20T06:15:00;0.60;;;0.45;;
22531;SDS011;11432;46.924;7.114;2022-11-20T06:17:26;1.15;;;0.55;;
22531;SDS011;11432;46.924;7.114;2022-11-20T06:19:51;1.10;;;0.43;;
22531;SDS011;11432;46.924;7.114;2022-11-20T06:22:17;1.40;;;0.40;;
22531;SDS011;11432;46.924;7.114;2022-11-20T06:24:42;0.98;;;0.50;;
22531;SDS011;11432;46.924;7.114;2022-11-20T06:27:08;0.52;;;0.40;;
22531;SDS011;11432;46.924;7.114;2022-11-20T06:29:33;1.92;;;0.60;;
22531;SDS011;11432;46.924;7.114;2022-11-20T06:31:59;1.58;;;0.40;;
22531;SDS011;11432;46.924;7.114;2022-11-20T06:34:26;0.73;;;0.60;;
22531;SDS011;11432;46.924;7.114;2022-11-20T06:36:51;2.03;;;0.70;;
22531;SDS011;11432;46.924;7.114;2022-11-20T06:39:17;1.80;;;0.50;;
22531;SDS011;11432;46.924;7.114;2022-11-20T06:41:42;1.60;;;0.68;;
22531;SDS011;11432;46.924;7.114;2022-11-20T06:44:08;1.20;;;0.50;;
22531;SDS011;11432;46.924;7.114;2022-11-20T06:46:34;1.58;;;0.43;;
22531;SDS011;11432;46.924;7.114;2022-11-20T06:48:59;0.93;;;0.40;;
22531;SDS011;11432;46.924;7.114;2022-11-20T06:51:25;1.52;;;0.60;;
22531;SDS011;11432;46.924;7.114;2022-11-20T06:53:50;2.00;;;0.52;;
22531;SDS011;11432;46.924;7.114;2022-11-20T06:56:16;0.40;;;0.32;;
22531;SDS011;11432;46.924;7.114;2022-11-20T06:58:41;0.50;;;0.30;;
22531;SDS011;11432;46.924;7.114;2022-11-20T07:01:09;1.33;;;0.60;;
22531;SDS011;11432;46.924;7.114;2022-11-20T07:03:36;0.73;;;0.40;;
22531;SDS011;11432;46.924;7.114;2022-11-20T07:06:02;1.35;;;0.52;;
22531;SDS011;11432;46.924;7.114;2022-11-20T07:08:28;0.93;;;0.45;;
22531;SDS011;11432;46.924;7.114;2022-11-20T07:10:58;2.42;;;0.47;;
22531;SDS011;11432;46.924;7.114;2022-11-20T07:13:28;0.50;;;0.22;;
22531;SDS011;11432;46.924;7.114;2022-11-20T07:15:54;0.80;;;0.30;;
22531;SDS011;11432;46.924;7.114;2022-11-20T07:20:49;0.82;;;0.35;;
22531;SDS011;11432;46.924;7.114;2022-11-20T07:23:14;0.85;;;0.30;;
22531;SDS011;11432;46.924;7.114;2022-11-20T07:25:40;0.75;;;0.30;;
22531;SDS011;11432;46.924;7.114;2022-11-20T07:28:06;1.48;;;0.40;;
22531;SDS011;11432;46.924;7.114;2022-11-20T07:30:31;1.00;;;0.50;;
22531;SDS011;11432;46.924;7.114;2022-11-20T07:32:57;0.75;;;0.43;;
22531;SDS011;11432;46.924;7.114;2022-11-20T07:35:23;4.00;;;0.73;;
22531;SDS011;11432;46.924;7.114;2022-11-20T07:37:49;1.65;;;0.98;;
22531;SDS011;11432;46.924;7.114;2022-11-20T07:40:15;1.98;;;1.15;;
22531;SDS011;11432;46.924;7.114;2022-11-20T07:42:48;3.00;;;1.65;;
22531;SDS011;11432;46.924;7.114;2022-11-20T07:45:18;2.20;;;0.90;;
22531;SDS011;11432;46.924;7.114;2022-11-20T07:47:45;3.53;;;2.38;;
22531;SDS011;11432;46.924;7.114;2022-11-20T07:50:11;3.08;;;1.17;;
22531;SDS011;11432;46.924;7.114;2022-11-20T07:52:37;6.15;;;1.90;;
22531;SDS011;11432;46.924;7.114;2022-11-20T07:55:03;1.52;;;0.98;;
22531;SDS011;11432;46.924;7.114;2022-11-20T07:57:30;3.65;;;1.13;;
22531;SDS011;11432;46.924;7.114;2022-11-20T07:59:55;2.05;;;1.25;;
22531;SDS011;11432;46.924;7.114;2022-11-20T08:02:21;1.63;;;0.68;;
22531;SDS011;11432;46.924;7.114;2022-11-20T08:04:47;3.10;;;1.42;;
22531;SDS011;11432;46.924;7.114;2022-11-20T08:07:12;1.13;;;0.80;;
22531;SDS011;11432;46.924;7.114;2022-11-20T08:09:38;0.88;;;0.85;;
22531;SDS011;11432;46.924;7.114;2022-11-20T08:12:03;2.22;;;0.70;;
22531;SDS011;11432;46.924;7.114;2022-11-20T08:15:08;1.52;;;0.70;;
22531;SDS011;11432;46.924;7.114;2022-11-20T08:17:33;1.10;;;0.50;;
22531;SDS011;11432;46.924;7.114;2022-11-20T08:19:59;1.10;;;0.60;;
22531;SDS011;11432;46.924;7.114;2022-11-20T08:22:25;1.23;;;0.60;;
22531;SDS011;11432;46.924;7.114;2022-11-20T08:24:50;1.85;;;0.47;;
22531;SDS011;11432;46.924;7.114;2022-11-20T08:27:16;1.75;;;0.70;;
22531;SDS011;11432;46.924;7.114;2022-11-20T08:29:41;1.33;;;0.60;;
22531;SDS011;11432;46.924;7.114;2022-11-20T08:32:07;1.25;;;0.70;;
22531;SDS011;11432;46.924;7.114;2022-11-20T08:34:33;2.25;;;0.65;;
22531;SDS011;11432;46.924;7.114;2022-11-20T08:36:58;0.85;;;0.55;;
22531;SDS011;11432;46.924;7.114;2022-11-20T08:39:24;1.33;;;0.70;;
22531;SDS011;11432;46.924;7.114;2022-11-20T08:41:49;1.98;;;0.68;;
22531;SDS011;11432;46.924;7.114;2022-11-20T08:44:15;1.00;;;0.60;;
22531;SDS011;11432;46.924;7.114;2022-11-20T08:46:41;1.25;;;0.70;;
22531;SDS011;11432;46.924;7.114;2022-11-20T08:49:09;2.08;;;0.70;;
22531;SDS011;11432;46.924;7.114;2022-11-20T08:51:36;1.88;;;0.98;;
22531;SDS011;11432;46.924;7.114;2022-11-20T08:54:02;2.20;;;1.00;;
22531;SDS011;11432;46.924;7.114;2022-11-20T08:56:28;1.65;;;0.90;;
22531;SDS011;11432;46.924;7.114;2022-11-20T08:58:55;2.20;;;1.00;;
22531;SDS011;11432;46.924;7.114;2022-11-20T09:01:21;2.45;;;0.90;;
22531;SDS011;11432;46.924;7.114;2022-11-20T09:03:48;2.67;;;0.93;;
22531;SDS011;11432;46.924;7.114;2022-11-20T09:06:14;2.50;;;1.13;;
22531;SDS011;11432;46.924;7.114;2022-11-20T09:08:40;2.25;;;1.15;;
22531;SDS011;11432;46.924;7.114;2022-11-20T09:11:05;2.88;;;1.00;;
22531;SDS011;11432;46.924;7.114;2022-11-20T09:13:32;2.22;;;0.90;;
22531;SDS011;11432;46.924;7.114;2022-11-20T09:16:03;2.40;;;0.93;;
22531;SDS011;11432;46.924;7.114;2022-11-20T09:18:33;1.83;;;0.80;;
22531;SDS011;11432;46.924;7.114;2022-11-20T09:21:02;1.85;;;1.00;;
22531;SDS011;11432;46.924;7.114;2022-11-20T09:23:36;1.88;;;0.98;;
22531;SDS011;11432;46.924;7.114;2022-11-20T09:26:05;1.63;;;0.90;;
22531;SDS011;11432;46.924;7.114;2022-11-20T09:28:36;2.75;;;1.00;;
22531;SDS011;11432;46.924;7.114;2022-11-20T09:31:05;1.75;;;1.00;;
22531;SDS011;11432;46.924;7.114;2022-11-20T09:33:31;2.53;;;0.90;;
22531;SDS011;11432;46.924;7.114;2022-11-20T09:35:57;1.88;;;1.10;;
22531;SDS011;11432;46.924;7.114;2022-11-20T09:38:23;3.22;;;0.82;;
22531;SDS011;11432;46.924;7.114;2022-11-20T09:40:54;2.25;;;0.80;;
22531;SDS011;11432;46.924;7.114;2022-11-20T09:52:00;1.70;;;0.63;;
22531;SDS011;11432;46.924;7.114;2022-11-20T09:54:36;1.40;;;0.50;;
22531;SDS011;11432;46.924;7.114;2022-11-20T09:57:08;2.38;;;0.63;;
22531;SDS011;11432;46.924;7.114;2022-11-20T09:59:42;1.15;;;0.50;;
22531;SDS011;11432;46.924;7.114;2022-11-20T10:19:51;1.70;;;0.70;;
22531;SDS011;11432;46.924;7.114;2022-11-20T10:25:15;1.30;;;0.63;;
22531;SDS011;11432;46.924;7.114;2022-11-20T10:30:25;2.47;;;0.75;;
22531;SDS011;11432;46.924;7.114;2022-11-20T10:32:52;1.02;;;0.60;;
22531;SDS011;11432;46.924;7.114;2022-11-20T10:35:28;1.25;;;0.60;;
22531;SDS011;11432;46.924;7.114;2022-11-20T10:38:19;1.85;;;0.40;;
22531;SDS011;11432;46.924;7.114;2022-11-20T10:40:58;0.90;;;0.40;;
22531;SDS011;11432;46.924;7.114;2022-11-20T10:44:09;1.13;;;0.30;;
22531;SDS011;11432;46.924;7.114;2022-11-20T10:46:40;0.82;;;0.40;;
22531;SDS011;11432;46.924;7.114;2022-11-20T10:49:15;0.85;;;0.50;;
22531;SDS011;11432;46.924;7.114;2022-11-20T10:51:48;1.23;;;0.50;;
22531;SDS011;11432;46.924;7.114;2022-11-20T10:54:47;0.98;;;0.40;;
22531;SDS011;11432;46.924;7.114;2022-11-20T10:57:25;0.63;;;0.47;;
22531;SDS011;11432;46.924;7.114;2022-11-20T11:00:16;1.38;;;0.50;;
22531;SDS011;11432;46.924;7.114;2022-11-20T11:02:46;2.00;;;0.50;;
22531;SDS011;11432;46.924;7.114;2022-11-20T11:07:55;0.57;;;0.30;;
22531;SDS011;11432;46.924;7.114;2022-11-20T11:13:21;0.45;;;0.32;;
22531;SDS011;11432;46.924;7.114;2022-11-20T11:15:52;0.50;;;0.20;;
22531;SDS011;11432;46.924;7.114;2022-11-20T11:18:39;0.15;;;0.15;;
22531;SDS011;11432;46.924;7.114;2022-11-20T11:21:05;0.90;;;0.30;;
22531;SDS011;11432;46.924;7.114;2022-11-20T11:23:32;1.58;;;0.22;;
22531;SDS011;11432;46.924;7.114;2022-11-20T11:25:58;0.52;;;0.28;;
22531;SDS011;11432;46.924;7.114;2022-11-20T11:28:25;1.02;;;0.40;;
22531;SDS011;11432;46.924;7.114;2022-11-20T11:30:52;0.82;;;0.22;;
22531;SDS011;11432;46.924;7.114;2022-11-20T11:33:20;0.38;;;0.20;;
22531;SDS011;11432;46.924;7.114;2022-11-20T11:36:16;1.45;;;0.40;;
22531;SDS011;11432;46.924;7.114;2022-11-20T11:38:48;0.38;;;0.30;;
22531;SDS011;11432;46.924;7.114;2022-11-20T11:41:23;1.02;;;0.40;;
22531;SDS011;11432;46.924;7.114;2022-11-20T11:43:53;1.92;;;0.70;;
22531;SDS011;11432;46.924;7.114;2022-11-20T11:46:41;0.43;;;0.28;;
22531;SDS011;11432;46.924;7.114;2022-11-20T11:49:17;1.15;;;0.40;;
22531;SDS011;11432;46.924;7.114;2022-11-20T11:54:48;0.80;;;0.30;;
22531;SDS011;11432;46.924;7.114;2022-11-20T12:07:39;0.32;;;0.20;;
22531;SDS011;11432;46.924;7.114;2022-11-20T12:10:14;1.05;;;0.30;;
22531;SDS011;11432;46.924;7.114;2022-11-20T12:12:44;2.30;;;1.25;;
22531;SDS011;11432;46.924;7.114;2022-11-20T12:15:16;0.77;;;0.50;;
22531;SDS011;11432;46.924;7.114;2022-11-20T12:17:56;2.35;;;0.85;;
22531;SDS011;11432;46.924;7.114;2022-11-20T12:20:22;1.77;;;0.70;;
22531;SDS011;11432;46.924;7.114;2022-11-20T12:23:09;1.35;;;0.73;;
22531;SDS011;11432;46.924;7.114;2022-11-20T12:25:48;1.20;;;0.40;;
22531;SDS011;11432;46.924;7.114;2022-11-20T12:45:48;0.47;;;0.20;;
22531;SDS011;11432;46.924;7.114;2022-11-20T12:48:42;0.82;;;0.50;;
22531;SDS011;11432;46.924;7.114;2022-11-20T12:51:43;1.40;;;0.40;;
22531;SDS011;11432;46.924;7.114;2022-11-20T13:08:32;1.73;;;0.32;;
22531;SDS011;11432;46.924;7.114;2022-11-20T13:11:08;0.30;;;0.30;;
22531;SDS011;11432;46.924;7.114;2022-11-20T13:13:59;0.50;;;0.30;;
22531;SDS011;11432;46.924;7.114;2022-11-20T13:19:19;0.38;;;0.30;;
22531;SDS011;11432;46.924;7.114;2022-11-20T13:21:47;1.33;;;0.35;;
22531;SDS011;11432;46.924;7.114;2022-11-20T13:26:48;0.30;;;0.25;;
22531;SDS011;11432;46.924;7.114;2022-11-20T13:29:33;1.70;;;0.55;;
22531;SDS011;11432;46.924;7.114;2022-11-20T13:32:06;0.90;;;0.52;;
22531;SDS011;11432;46.924;7.114;2022-11-20T13:34:38;1.75;;;0.30;;
22531;SDS011;11432;46.924;7.114;2022-11-20T13:37:04;0.55;;;0.30;;
22531;SDS011;11432;46.924;7.114;2022-11-20T13:39:34;1.38;;;0.43;;
22531;SDS011;11432;46.924;7.114;2022-11-20T13:42:23;0.60;;;0.32;;
22531;SDS011;11432;46.924;7.114;2022-11-20T13:44:54;0.50;;;0.30;;
22531;SDS011;11432;46.924;7.114;2022-11-20T13:49:47;0.88;;;0.30;;
22531;SDS011;11432;46.924;7.114;2022-11-20T13:57:46;0.43;;;0.20;;
22531;SDS011;11432;46.924;7.114;2022-11-20T14:00:45;0.65;;;0.30;;
22531;SDS011;11432;46.924;7.114;2022-11-20T14:03:38;0.30;;;0.20;;
22531;SDS011;11432;46.924;7.114;2022-11-20T14:06:10;0.82;;;0.38;;
22531;SDS011;11432;46.924;7.114;2022-11-20T14:08:40;0.32;;;0.20;;
22531;SDS011;11432;46.924;7.114;2022-11-20T14:11:17;0.43;;;0.20;;
22531;SDS011;11432;46.924;7.114;2022-11-20T14:16:21;0.50;;;0.40;;
22531;SDS011;11432;46.924;7.114;2022-11-20T14:18:47;0.47;;;0.22;;
22531;SDS011;11432;46.924;7.114;2022-11-20T14:21:21;0.93;;;0.20;;
22531;SDS011;11432;46.924;7.114;2022-11-20T14:24:03;0.68;;;0.32;;
22531;SDS011;11432;46.924;7.114;2022-11-20T14:26:30;1.15;;;0.20;;
22531;SDS011;11432;46.924;7.114;2022-11-20T14:28:56;0.30;;;0.30;;
22531;SDS011;11432;46.924;7.114;2022-11-20T14:31:23;0.57;;;0.30;;
22531;SDS011;11432;46.924;7.114;2022-11-20T14:33:50;0.70;;;0.32;;
22531;SDS011;11432;46.924;7.114;2022-11-20T14:36:18;0.55;;;0.20;;
22531;SDS011;11432;46.924;7.114;2022-11-20T14:38:46;1.17;;;0.52;;
22531;SDS011;11432;46.924;7.114;2022-11-20T14:41:18;1.95;;;0.32;;
22531;SDS011;11432;46.924;7.114;2022-11-20T14:43:51;0.75;;;0.40;;
22531;SDS011;11432;46.924;7.114;2022-11-20T14:46:21;1.10;;;0.43;;
22531;SDS011;11432;46.924;7.114;2022-11-20T14:48:51;2.10;;;1.02;;
22531;SDS011;11432;46.924;7.114;2022-11-20T14:56:53;1.27;;;0.60;;
22531;SDS011;11432;46.924;7.114;2022-11-20T14:59:29;0.65;;;0.40;;
22531;SDS011;11432;46.924;7.114;2022-11-20T15:04:27;0.68;;;0.30;;
22531;SDS011;11432;46.924;7.114;2022-11-20T15:06:54;2.42;;;0.40;;
22531;SDS011;11432;46.924;7.114;2022-11-20T15:09:21;0.52;;;0.28;;
22531;SDS011;11432;46.924;7.114;2022-11-20T15:11:51;1.92;;;0.40;;
22531;SDS011;11432;46.924;7.114;2022-11-20T15:14:41;0.68;;;0.22;;
22531;SDS011;11432;46.924;7.114;2022-11-20T15:17:07;1.38;;;0.35;;
22531;SDS011;11432;46.924;7.114;2022-11-20T15:19:35;0.90;;;0.35;;
22531;SDS011;11432;46.924;7.114;2022-11-20T15:22:01;0.98;;;0.30;;
22531;SDS011;11432;46.924;7.114;2022-11-20T15:24:27;1.38;;;0.30;;
22531;SDS011;11432;46.924;7.114;2022-11-20T15:26:52;1.17;;;0.40;;
22531;SDS011;11432;46.924;7.114;2022-11-20T15:29:18;0.60;;;0.30;;
22531;SDS011;11432;46.924;7.114;2022-11-20T15:31:45;1.17;;;0.82;;
22531;SDS011;11432;46.924;7.114;2022-11-20T15:34:11;0.77;;;0.22;;
22531;SDS011;11432;46.924;7.114;2022-11-20T15:36:38;1.38;;;0.38;;
22531;SDS011;11432;46.924;7.114;2022-11-20T15:39:04;0.82;;;0.38;;
22531;SDS011;11432;46.924;7.114;2022-11-20T15:41:32;0.52;;;0.30;;
22531;SDS011;11432;46.924;7.114;2022-11-20T15:43:58;1.98;;;0.40;;
22531;SDS011;11432;46.924;7.114;2022-11-20T15:46:28;0.95;;;0.52;;
22531;SDS011;11432;46.924;7.114;2022-11-20T15:48:58;0.30;;;0.30;;
22531;SDS011;11432;46.924;7.114;2022-11-20T15:51:35;0.75;;;0.40;;
22531;SDS011;11432;46.924;7.114;2022-11-20T15:54:09;0.60;;;0.38;;
22531;SDS011;11432;46.924;7.114;2022-11-20T15:56:36;0.90;;;0.50;;
22531;SDS011;11432;46.924;7.114;2022-11-20T15:59:02;0.40;;;0.17;;
22531;SDS011;11432;46.924;7.114;2022-11-20T16:01:28;0.77;;;0.50;;
22531;SDS011;11432;46.924;7.114;2022-11-20T16:03:54;0.82;;;0.20;;
22531;SDS011;11432;46.924;7.114;2022-11-20T16:06:19;1.80;;;0.40;;
22531;SDS011;11432;46.924;7.114;2022-11-20T16:08:45;1.33;;;0.50;;
22531;SDS011;11432;46.924;7.114;2022-11-20T16:11:12;2.17;;;0.75;;
22531;SDS011;11432;46.924;7.114;2022-11-20T16:13:38;0.50;;;0.30;;
22531;SDS011;11432;46.924;7.114;2022-11-20T16:16:26;1.63;;;0.60;;
22531;SDS011;11432;46.924;7.114;2022-11-20T16:18:55;1.13;;;0.50;;
22531;SDS011;11432;46.924;7.114;2022-11-20T16:21:21;1.58;;;0.50;;
22531;SDS011;11432;46.924;7.114;2022-11-20T16:23:52;1.55;;;0.60;;
22531;SDS011;11432;46.924;7.114;2022-11-20T16:26:18;1.30;;;0.63;;
22531;SDS011;11432;46.924;7.114;2022-11-20T16:28:45;1.58;;;0.52;;
22531;SDS011;11432;46.924;7.114;2022-11-20T16:31:15;0.98;;;0.60;;
22531;SDS011;11432;46.924;7.114;2022-11-20T16:33:41;0.98;;;0.50;;
22531;SDS011;11432;46.924;7.114;2022-11-20T16:36:11;0.88;;;0.60;;
22531;SDS011;11432;46.924;7.114;2022-11-20T16:38:38;2.97;;;0.57;;
22531;SDS011;11432;46.924;7.114;2022-11-20T16:41:04;1.92;;;0.98;;
22531;SDS011;11432;46.924;7.114;2022-11-20T16:43:31;1.08;;;0.63;;
22531;SDS011;11432;46.924;7.114;2022-11-20T16:45:56;1.48;;;0.60;;
22531;SDS011;11432;46.924;7.114;2022-11-20T16:48:22;1.27;;;0.55;;
22531;SDS011;11432;46.924;7.114;2022-11-20T16:50:49;1.15;;;0.50;;
22531;SDS011;11432;46.924;7.114;2022-11-20T16:53:20;1.30;;;0.60;;
22531;SDS011;11432;46.924;7.114;2022-11-20T16:55:46;1.08;;;0.55;;
22531;SDS011;11432;46.924;7.114;2022-11-20T16:58:12;0.88;;;0.50;;
22531;SDS011;11432;46.924;7.114;2022-11-20T17:00:39;2.22;;;0.60;;